Upper Stepney, Connecticut
Current Conditions -  °F | °C
As of 9:15 AM on Tuesday 27 Jan 2015 (Local Time) from KOXC Reporting Station
Overcast Overcast  
Wind Chill:   Ceiling: 1000
Heat Index: 18°   Visibility: 0.75mi
Dew Point:   Wind: 13mph
Humidity: 68%   Direction: 340°NNW
Pressure: 29.59"   Gusts: 20mph
Location:  41.3375°N, 73.2254°W
Report Text: KOXC 271415Z 34011G17KT 3/4SM OVC010 M08/M13 A2959 RMK AO1
Loading
Personal Weather Stations






























Interactive Weather Map New forecast layout! Learn more

10-Day Weather Forecast

Advertisements
Track Severe Weather on mobile